ADDS METAR Data INFO
IDs: Format: Raw Decoded Include TAF

Data at: 1250 UTC 19 Oct 2017

KGAF 191235Z AUTO 15006KT 9SM CLR M01/M05 A2987 RMK AO2 PWINO
KGAF 191215Z AUTO 15007KT 10SM CLR M02/M05 A2988 RMK AO2 PWINO
KGAF 191155Z AUTO 15006KT 10SM CLR M01/M04 A2988 RMK AO2 PWINO
KGAF 191135Z AUTO 00000KT 10SM CLR 01/M04 A2989 RMK AO2 PWINO
KGAF 191115Z AUTO 00000KT 10SM CLR 00/M04 A2989 RMK AO2 PWINO
KGAF 191055Z AUTO 20005KT 10SM CLR 00/M04 A2990 RMK AO2 PWINO
KGAF 191035Z AUTO 21006KT 10SM CLR 00/M04 A2990 RMK AO2 PWINO
KGAF 191015Z AUTO 23007KT 10SM CLR 02/M02 A2990 RMK AO2 PWINO
KGAF 190955Z AUTO 24006KT 10SM CLR 03/M02 A2990 RMK AO2 PWINO
KGAF 190935Z AUTO 25006KT 10SM CLR 03/M02 A2990 RMK AO2 PWINO
KGAF 190915Z AUTO 24008KT 10SM CLR 04/M02 A2991 RMK AO2 PWINO
KGAF 190855Z AUTO 24008KT 10SM CLR 04/M03 A2991 RMK AO2 PWINO
KGAF 190835Z AUTO 23007KT 10SM CLR 03/M03 A2991 RMK AO2 PWINO
KGAF 190815Z AUTO 7.83333308KT 10SM CLR 04/M02 A2991 RMK AO2 PWINO
KGAF 190755Z AUTO 24009KT 10SM CLR 04/M03 A2991 RMK AO2 PWINO
KGAF 190735Z AUTO 23007KT 10SM CLR 04/M03 A2990 RMK AO2 PWINO
KGAF 190715Z AUTO 24009KT 10SM CLR 05/M03 A2990 RMK AO2 PWINO
KGAF 190655Z AUTO 24009KT 10SM CLR 06/M03 A2990 RMK AO2 PWINO
KGAF 190635Z AUTO 25010KT 10SM CLR 06/M03 A2989 RMK AO2 PWINO
KGAF 190615Z AUTO 25009KT 10SM CLR 07/M03 A2989 RMK AO2 PWINO
KGAF 190555Z AUTO 25008KT 10SM CLR 07/M03 A2989 RMK AO2 PWINO
KGAF 190535Z AUTO 25009KT 10SM CLR 06/M03 A2988 RMK AO2 PWINO
KGAF 190515Z AUTO 25010KT 10SM CLR 06/M04 A2988 RMK AO2 PWINO
KGAF 190455Z AUTO 26007KT 10SM CLR 08/M03 A2988 RMK AO2 PWINO
KGAF 190435Z AUTO 27012KT 10SM CLR 09/M03 A2987 RMK AO2 PWINO
KGAF 190415Z AUTO 27011KT 10SM CLR 09/M03 A2988 RMK AO2 PWINO
KGAF 190355Z AUTO 26013KT 10SM CLR 09/M03 A2988 RMK AO2 PWINO
KGAF 190335Z AUTO 26016KT 10SM CLR 09/M04 A2988 RMK AO2 PWINO
KGAF 190315Z AUTO 25013KT 10SM CLR 09/M04 A2988 RMK AO2 PWINO
KGAF 190255Z AUTO 25012KT 10SM CLR 09/M05 A2987 RMK AO2 PWINO
KGAF 190235Z AUTO 25010KT 10SM CLR 08/M05 A2986 RMK AO2 PWINO
KGAF 190215Z AUTO 26012KT 10SM CLR 09/M05 A2987 RMK AO2 PWINO
KGAF 190155Z AUTO 24009KT 10SM CLR 09/M07 A2986 RMK AO2 PWINO
KGAF 190135Z AUTO 25012KT 10SM CLR 10/M07 A2985 RMK AO2 PWINO
KGAF 190115Z AUTO 25014KT 10SM CLR 10/M07 A2984 RMK AO2 PWINO
KGAF 190055Z AUTO 25014KT 10SM CLR 10/M07 A2984 RMK AO2 PWINO
KGAF 190035Z AUTO 26014G21KT 10SM CLR 12/M08 A2984 RMK AO2 PWINO
KGAF 190015Z AUTO 26014G25KT 10SM CLR 12/M08 A2984 RMK AO2 PWINO
KGAF 182355Z AUTO 27018G27KT 10SM CLR 12/M08 A2983 RMK AO2 PWINO
KGAF 182335Z AUTO 26020G28KT 10SM CLR 13/M08 A2983 RMK AO2 PWINO
KGAF 182315Z AUTO 27022G36KT 10SM CLR 13/M09 A2982 RMK AO2 PWINO
KGAF 182255Z AUTO 27022G32KT 10SM CLR 14/M08 A2981 RMK AO2 PWINO
KGAF 182235Z AUTO 27023G29KT 9SM CLR 14/M08 A2980 RMK AO2 PWINO
KGAF 182215Z AUTO 27025G35KT 9SM CLR 14/M08 A2980 RMK AO2 PWINO
KGAF 182155Z AUTO 27026G32KT 10SM CLR 15/M08 A2980 RMK AO2 PWINO
KGAF 182135Z AUTO 28027G35KT 9SM CLR 15/M09 A2979 RMK AO2 PWINO
KGAF 182115Z AUTO 27029G41KT 10SM CLR 15/M09 A2979 RMK AO2 PWINO
KGAF 182055Z AUTO 27025G34KT 10SM CLR 15/M09 A2978 RMK AO2 PWINO
KGAF 182035Z AUTO 27022G32KT 9SM CLR 15/M07 A2978 RMK AO2 PWINO
KGAF 182015Z AUTO 27026G34KT 10SM CLR 15/M07 A2978 RMK AO2 PWINO
KGAF 181955Z AUTO 28024G36KT 9SM CLR 15/M07 A2977 RMK AO2 PWINO
KGAF 181935Z AUTO 28022G30KT 10SM CLR 15/M07 A2977 RMK AO2 PWINO
KGAF 181915Z AUTO 28022G34KT 10SM CLR 15/M07 A2978 RMK AO2 PWINO
KGAF 181855Z AUTO 27020G35KT 9SM CLR 15/M07 A2977 RMK AO2 PWINO
KGAF 181835Z AUTO 28024G37KT 10SM CLR 14/M07 A2977 RMK AO2 PWINO
KGAF 181815Z AUTO 29025G35KT 9SM CLR 14/M07 A2976 RMK AO2 PWINO
KGAF 181755Z AUTO 27027G33KT 9SM CLR 14/M06 A2976 RMK AO2 PWINO
KGAF 181735Z AUTO 27024G32KT 9SM CLR 14/M05 A2977 RMK AO2 PWINO
KGAF 181715Z AUTO 28023G30KT 10SM CLR 14/M04 A2977 RMK AO2 PWINO
KGAF 181655Z AUTO 27024G32KT 10SM CLR 13/M04 A2976 RMK AO2 PWINO
KGAF 181635Z AUTO 28020G28KT 10SM CLR 13/M03 A2975 RMK AO2 PWINO
KGAF 181615Z AUTO 27020G25KT 10SM CLR 12/M01 A2974 RMK AO2 PWINO
KGAF 181555Z AUTO 27020G26KT 10SM CLR 11/M01 A2974 RMK AO2 PWINO
KGAF 181535Z AUTO 27019G25KT 10SM CLR 11/M00 A2973 RMK AO2 PWINO
KGAF 181515Z AUTO 27018G25KT 10SM CLR 11/00 A2973 RMK AO2 PWINO
KGAF 181455Z AUTO 27017G24KT 10SM CLR 11/01 A2972 RMK AO2 PWINO
KGAF 181435Z AUTO 27018KT 10SM CLR 11/02 A2971 RMK AO2 PWINO
KGAF 181415Z AUTO 27019G26KT 9SM CLR 12/02 A2970 RMK AO2 PWINO
KGAF 181355Z AUTO 27019G26KT 9SM CLR 13/03 A2968 RMK AO2 PWINO
KGAF 181335Z AUTO 27015G22KT 8SM CLR 13/03 A2966 RMK AO2 PWINO
KGAF 181315Z AUTO 27018G26KT 8SM CLR 14/03 A2964 RMK AO2 PWINO
KGAF 181255Z AUTO 27016G25KT 10SM CLR 15/02 A2962 RMK AO2 PWINO
KGAF 181235Z AUTO 27017G29KT 9SM CLR 15/01 A2960 RMK AO2 PWINO
KGAF 181215Z AUTO 26018G23KT 10SM CLR 15/01 A2958 RMK AO2 PWINO
KGAF 181155Z AUTO 25012KT 10SM CLR 15/01 A2956 RMK AO2 PWINO
KGAF 181135Z AUTO 25011KT 10SM CLR 15/01 A2956 RMK AO2 PWINO
KGAF 181115Z AUTO 25009KT 10SM CLR 15/01 A2955 RMK AO2 PWINO
KGAF 181055Z AUTO 26012KT 10SM CLR 15/02 A2954 RMK AO2 PWINO
KGAF 181035Z AUTO 26013KT 10SM CLR 15/02 A2953 RMK AO2 PWINO
KGAF 181015Z AUTO 24015G21KT 10SM CLR 16/02 A2952 RMK AO2 PWINO
KGAF 180955Z AUTO 23013G19KT 10SM CLR 12/01 A2952 RMK AO2 PWINO
KGAF 180935Z AUTO 18006KT 10SM CLR 10/02 A2951 RMK AO2 PWINO
KGAF 180915Z AUTO 18009KT 10SM CLR 11/02 A2948 RMK AO2 PWINO
KGAF 180855Z AUTO 16010KT 10SM CLR 11/02 A2948 RMK AO2 PWINO
KGAF 180835Z AUTO 16011KT 10SM CLR 14/02 A2949 RMK AO2 PWINO
KGAF 180815Z AUTO 19011KT 10SM CLR 15/02 A2950 RMK AO2 PWINO
KGAF 180755Z AUTO 19011G17KT 10SM CLR 16/02 A2951 RMK AO2 PWINO
KGAF 180735Z AUTO 21013KT 10SM CLR 16/02 A2953 RMK AO2 PWINO
KGAF 180715Z AUTO 19007KT 10SM CLR 11/02 A2954 RMK AO2 PWINO
KGAF 180655Z AUTO 17008KT 10SM CLR 09/01 A2954 RMK AO2 PWINO
KGAF 180635Z AUTO 17007KT 10SM CLR 10/01 A2954 RMK AO2 PWINO
KGAF 180615Z AUTO 18008KT 10SM CLR 11/01 A2954 RMK AO2 PWINO
KGAF 180555Z AUTO 18008KT 10SM CLR 11/01 A2954 RMK AO2 PWINO
KGAF 180535Z AUTO 19009KT 10SM CLR 11/01 A2955 RMK AO2 PWINO
KGAF 180515Z AUTO 19009KT 10SM CLR 11/01 A2956 RMK AO2 PWINO
KGAF 180455Z AUTO 18011KT 10SM CLR 12/01 A2956 RMK AO2 PWINO
KGAF 180435Z AUTO 18011KT 10SM CLR 12/01 A2956 RMK AO2 PWINO
KGAF 180415Z AUTO 18009KT 10SM CLR 12/00 A2957 RMK AO2 PWINO
KGAF 180355Z AUTO 18010KT 10SM CLR 11/00 A2958 RMK AO2 PWINO
KGAF 180335Z AUTO 18010KT 10SM CLR 12/00 A2959 RMK AO2 PWINO
KGAF 180315Z AUTO 18009KT 10SM CLR 11/00 A2959 RMK AO2 PWINO
KGAF 180255Z AUTO 18009KT 10SM CLR 11/00 A2959 RMK AO2 PWINO
KGAF 180235Z AUTO 17007KT 10SM CLR 11/00 A2960 RMK AO2 PWINO
KGAF 180215Z AUTO 17008KT 10SM CLR 11/01 A2961 RMK AO2 PWINO
KGAF 180155Z AUTO 17008KT 10SM CLR 11/00 A2962 RMK AO2 PWINO
KGAF 180135Z AUTO 17009KT 7SM CLR 12/00 A2962 RMK AO2 PWINO
KGAF 180115Z AUTO 18010KT 10SM CLR 14/00 A2963 RMK AO2 PWINO
KGAF 180055Z AUTO 18009KT 10SM CLR 15/00 A2964 RMK AO2 PWINO